sensor_id;sensor_type;location;lat;lon;timestamp;P1;durP1;ratioP1;P2;durP2;ratioP2
54408;SDS011;40315;48.620;9.828;2023-02-19T00:00:56;3.92;;;3.10;;
54408;SDS011;40315;48.620;9.828;2023-02-19T00:03:23;3.40;;;3.10;;
54408;SDS011;40315;48.620;9.828;2023-02-19T00:05:50;4.32;;;3.60;;
54408;SDS011;40315;48.620;9.828;2023-02-19T00:08:17;3.75;;;3.40;;
54408;SDS011;40315;48.620;9.828;2023-02-19T00:10:45;3.92;;;3.42;;
54408;SDS011;40315;48.620;9.828;2023-02-19T00:13:13;4.45;;;3.20;;
54408;SDS011;40315;48.620;9.828;2023-02-19T00:15:40;4.28;;;3.78;;
54408;SDS011;40315;48.620;9.828;2023-02-19T00:18:07;4.57;;;3.33;;
54408;SDS011;40315;48.620;9.828;2023-02-19T00:20:36;3.70;;;3.20;;
54408;SDS011;40315;48.620;9.828;2023-02-19T00:23:03;4.03;;;3.63;;
54408;SDS011;40315;48.620;9.828;2023-02-19T00:25:30;4.93;;;4.05;;
54408;SDS011;40315;48.620;9.828;2023-02-19T00:28:01;4.28;;;3.80;;
54408;SDS011;40315;48.620;9.828;2023-02-19T00:30:28;5.82;;;3.60;;
54408;SDS011;40315;48.620;9.828;2023-02-19T00:32:58;4.70;;;4.20;;
54408;SDS011;40315;48.620;9.828;2023-02-19T00:35:25;6.05;;;3.65;;
54408;SDS011;40315;48.620;9.828;2023-02-19T00:37:54;4.90;;;3.65;;
54408;SDS011;40315;48.620;9.828;2023-02-19T00:40:21;4.15;;;3.60;;
54408;SDS011;40315;48.620;9.828;2023-02-19T00:42:51;5.25;;;3.60;;
54408;SDS011;40315;48.620;9.828;2023-02-19T00:45:20;3.95;;;3.55;;
54408;SDS011;40315;48.620;9.828;2023-02-19T00:47:47;3.63;;;3.30;;
54408;SDS011;40315;48.620;9.828;2023-02-19T00:50:14;4.22;;;3.20;;
54408;SDS011;40315;48.620;9.828;2023-02-19T00:52:41;4.22;;;3.25;;
54408;SDS011;40315;48.620;9.828;2023-02-19T00:55:08;3.40;;;3.10;;
54408;SDS011;40315;48.620;9.828;2023-02-19T00:57:35;4.35;;;3.20;;
54408;SDS011;40315;48.620;9.828;2023-02-19T01:00:02;4.03;;;3.53;;
54408;SDS011;40315;48.620;9.828;2023-02-19T01:02:32;3.88;;;3.10;;
54408;SDS011;40315;48.620;9.828;2023-02-19T01:04:59;3.40;;;3.10;;
54408;SDS011;40315;48.620;9.828;2023-02-19T01:07:26;3.72;;;3.20;;
54408;SDS011;40315;48.620;9.828;2023-02-19T01:09:53;4.45;;;3.53;;
54408;SDS011;40315;48.620;9.828;2023-02-19T01:12:20;4.15;;;3.60;;
54408;SDS011;40315;48.620;9.828;2023-02-19T01:14:48;4.65;;;3.53;;
54408;SDS011;40315;48.620;9.828;2023-02-19T01:17:15;3.60;;;3.30;;
54408;SDS011;40315;48.620;9.828;2023-02-19T01:19:46;3.85;;;3.50;;
54408;SDS011;40315;48.620;9.828;2023-02-19T01:22:13;4.88;;;3.72;;
54408;SDS011;40315;48.620;9.828;2023-02-19T01:24:40;3.85;;;3.45;;
54408;SDS011;40315;48.620;9.828;2023-02-19T01:27:07;3.95;;;3.55;;
54408;SDS011;40315;48.620;9.828;2023-02-19T01:29:35;5.07;;;4.10;;
54408;SDS011;40315;48.620;9.828;2023-02-19T01:32:02;3.80;;;3.50;;
54408;SDS011;40315;48.620;9.828;2023-02-19T01:34:29;3.97;;;3.58;;
54408;SDS011;40315;48.620;9.828;2023-02-19T01:36:58;4.55;;;4.00;;
54408;SDS011;40315;48.620;9.828;2023-02-19T01:39:26;4.70;;;4.20;;
54408;SDS011;40315;48.620;9.828;2023-02-19T01:41:53;5.72;;;3.92;;
54408;SDS011;40315;48.620;9.828;2023-02-19T01:51:04;4.93;;;4.43;;
54408;SDS011;40315;48.620;9.828;2023-02-19T01:53:35;5.97;;;4.95;;
54408;SDS011;40315;48.620;9.828;2023-02-19T01:56:04;6.82;;;5.05;;
54408;SDS011;40315;48.620;9.828;2023-02-19T01:58:33;6.15;;;5.07;;
54408;SDS011;40315;48.620;9.828;2023-02-19T02:03:44;5.93;;;4.90;;
54408;SDS011;40315;48.620;9.828;2023-02-19T02:06:14;5.65;;;4.55;;
54408;SDS011;40315;48.620;9.828;2023-02-19T02:08:52;5.10;;;4.57;;
54408;SDS011;40315;48.620;9.828;2023-02-19T02:11:39;6.55;;;4.78;;
54408;SDS011;40315;48.620;9.828;2023-02-19T02:14:11;5.63;;;4.53;;
54408;SDS011;40315;48.620;9.828;2023-02-19T02:16:41;5.50;;;4.53;;
54408;SDS011;40315;48.620;9.828;2023-02-19T02:19:22;6.05;;;4.80;;
54408;SDS011;40315;48.620;9.828;2023-02-19T02:21:58;4.70;;;4.30;;
54408;SDS011;40315;48.620;9.828;2023-02-19T02:27:46;5.05;;;4.55;;
54408;SDS011;40315;48.620;9.828;2023-02-19T02:30:29;4.40;;;4.00;;
54408;SDS011;40315;48.620;9.828;2023-02-19T02:33:01;4.63;;;3.80;;
54408;SDS011;40315;48.620;9.828;2023-02-19T02:35:38;4.20;;;3.70;;
54408;SDS011;40315;48.620;9.828;2023-02-19T02:38:10;4.25;;;3.38;;
54408;SDS011;40315;48.620;9.828;2023-02-19T02:40:39;3.72;;;3.30;;
54408;SDS011;40315;48.620;9.828;2023-02-19T02:43:10;3.75;;;3.20;;
54408;SDS011;40315;48.620;9.828;2023-02-19T02:45:41;2.78;;;2.33;;
54408;SDS011;40315;48.620;9.828;2023-02-19T02:48:17;4.32;;;2.80;;
54408;SDS011;40315;48.620;9.828;2023-02-19T02:50:52;3.00;;;2.33;;
54408;SDS011;40315;48.620;9.828;2023-02-19T02:53:25;2.75;;;2.47;;
54408;SDS011;40315;48.620;9.828;2023-02-19T02:56:13;3.35;;;2.60;;
54408;SDS011;40315;48.620;9.828;2023-02-19T02:58:42;3.78;;;2.67;;
54408;SDS011;40315;48.620;9.828;2023-02-19T03:01:13;2.80;;;2.50;;
54408;SDS011;40315;48.620;9.828;2023-02-19T03:04:01;3.33;;;2.95;;
54408;SDS011;40315;48.620;9.828;2023-02-19T03:06:32;2.75;;;2.55;;
54408;SDS011;40315;48.620;9.828;2023-02-19T03:09:04;3.15;;;2.83;;
54408;SDS011;40315;48.620;9.828;2023-02-19T03:11:35;4.40;;;2.90;;
54408;SDS011;40315;48.620;9.828;2023-02-19T03:14:24;3.40;;;3.10;;
54408;SDS011;40315;48.620;9.828;2023-02-19T03:17:16;3.15;;;2.83;;
54408;SDS011;40315;48.620;9.828;2023-02-19T03:20:04;3.33;;;3.00;;
54408;SDS011;40315;48.620;9.828;2023-02-19T03:22:39;3.17;;;2.88;;
54408;SDS011;40315;48.620;9.828;2023-02-19T03:25:11;3.75;;;3.20;;
54408;SDS011;40315;48.620;9.828;2023-02-19T03:28:00;3.20;;;2.90;;
54408;SDS011;40315;48.620;9.828;2023-02-19T03:30:33;3.90;;;3.03;;
54408;SDS011;40315;48.620;9.828;2023-02-19T03:33:06;4.38;;;2.90;;
54408;SDS011;40315;48.620;9.828;2023-02-19T03:35:39;3.97;;;2.00;;
54408;SDS011;40315;48.620;9.828;2023-02-19T03:38:11;2.75;;;1.73;;
54408;SDS011;40315;48.620;9.828;2023-02-19T03:40:52;3.50;;;1.92;;
54408;SDS011;40315;48.620;9.828;2023-02-19T03:43:26;2.17;;;1.98;;
54408;SDS011;40315;48.620;9.828;2023-02-19T03:46:05;2.05;;;1.83;;
54408;SDS011;40315;48.620;9.828;2023-02-19T03:48:37;2.28;;;1.92;;
54408;SDS011;40315;48.620;9.828;2023-02-19T03:51:14;2.17;;;1.90;;
54408;SDS011;40315;48.620;9.828;2023-02-19T03:53:50;2.15;;;1.80;;
54408;SDS011;40315;48.620;9.828;2023-02-19T03:56:27;3.17;;;1.98;;
54408;SDS011;40315;48.620;9.828;2023-02-19T03:59:04;2.38;;;1.90;;
54408;SDS011;40315;48.620;9.828;2023-02-19T04:01:37;2.00;;;1.80;;
54408;SDS011;40315;48.620;9.828;2023-02-19T04:04:14;2.63;;;2.08;;
54408;SDS011;40315;48.620;9.828;2023-02-19T04:06:47;3.72;;;2.30;;
54408;SDS011;40315;48.620;9.828;2023-02-19T04:09:18;2.13;;;1.88;;
54408;SDS011;40315;48.620;9.828;2023-02-19T04:11:53;2.13;;;1.75;;
54408;SDS011;40315;48.620;9.828;2023-02-19T04:14:22;1.83;;;1.60;;
54408;SDS011;40315;48.620;9.828;2023-02-19T04:16:57;1.95;;;1.80;;
54408;SDS011;40315;48.620;9.828;2023-02-19T04:19:30;1.60;;;1.50;;
54408;SDS011;40315;48.620;9.828;2023-02-19T04:22:00;1.73;;;1.60;;
54408;SDS011;40315;48.620;9.828;2023-02-19T04:24:30;2.00;;;1.63;;
54408;SDS011;40315;48.620;9.828;2023-02-19T04:27:00;1.98;;;1.63;;
54408;SDS011;40315;48.620;9.828;2023-02-19T04:29:28;2.10;;;1.75;;
54408;SDS011;40315;48.620;9.828;2023-02-19T04:31:55;2.00;;;1.80;;
54408;SDS011;40315;48.620;9.828;2023-02-19T04:34:22;2.28;;;2.08;;
54408;SDS011;40315;48.620;9.828;2023-02-19T04:36:53;2.97;;;1.80;;
54408;SDS011;40315;48.620;9.828;2023-02-19T04:39:22;2.00;;;1.80;;
54408;SDS011;40315;48.620;9.828;2023-02-19T04:41:52;1.80;;;1.58;;
54408;SDS011;40315;48.620;9.828;2023-02-19T04:44:19;2.17;;;1.90;;
54408;SDS011;40315;48.620;9.828;2023-02-19T04:46:46;2.03;;;1.77;;
54408;SDS011;40315;48.620;9.828;2023-02-19T04:49:13;2.53;;;1.80;;
54408;SDS011;40315;48.620;9.828;2023-02-19T04:51:40;2.20;;;2.00;;
54408;SDS011;40315;48.620;9.828;2023-02-19T04:54:09;3.05;;;2.00;;
54408;SDS011;40315;48.620;9.828;2023-02-19T04:56:38;2.38;;;1.77;;
54408;SDS011;40315;48.620;9.828;2023-02-19T04:59:07;1.92;;;1.73;;
54408;SDS011;40315;48.620;9.828;2023-02-19T05:01:35;2.55;;;1.88;;
54408;SDS011;40315;48.620;9.828;2023-02-19T05:04:02;1.73;;;1.55;;
54408;SDS011;40315;48.620;9.828;2023-02-19T05:06:29;2.75;;;1.90;;
54408;SDS011;40315;48.620;9.828;2023-02-19T05:08:56;1.90;;;1.65;;
54408;SDS011;40315;48.620;9.828;2023-02-19T05:11:24;2.38;;;1.90;;
54408;SDS011;40315;48.620;9.828;2023-02-19T05:13:51;2.10;;;1.90;;
54408;SDS011;40315;48.620;9.828;2023-02-19T05:16:22;2.55;;;1.90;;
54408;SDS011;40315;48.620;9.828;2023-02-19T05:18:51;3.45;;;1.65;;
54408;SDS011;40315;48.620;9.828;2023-02-19T05:21:18;2.10;;;1.55;;
54408;SDS011;40315;48.620;9.828;2023-02-19T05:23:45;1.63;;;1.52;;
54408;SDS011;40315;48.620;9.828;2023-02-19T05:26:13;2.13;;;1.92;;
54408;SDS011;40315;48.620;9.828;2023-02-19T05:28:46;1.95;;;1.75;;
54408;SDS011;40315;48.620;9.828;2023-02-19T05:31:15;2.03;;;1.90;;
54408;SDS011;40315;48.620;9.828;2023-02-19T05:33:44;1.70;;;1.60;;
54408;SDS011;40315;48.620;9.828;2023-02-19T05:36:15;1.60;;;1.50;;
54408;SDS011;40315;48.620;9.828;2023-02-19T05:38:43;2.08;;;1.73;;
54408;SDS011;40315;48.620;9.828;2023-02-19T05:41:10;2.33;;;1.70;;
54408;SDS011;40315;48.620;9.828;2023-02-19T05:43:40;2.67;;;1.95;;
54408;SDS011;40315;48.620;9.828;2023-02-19T05:46:09;2.95;;;2.28;;
54408;SDS011;40315;48.620;9.828;2023-02-19T05:48:37;4.70;;;3.25;;
54408;SDS011;40315;48.620;9.828;2023-02-19T05:51:09;3.70;;;3.28;;
54408;SDS011;40315;48.620;9.828;2023-02-19T05:53:40;4.05;;;3.30;;
54408;SDS011;40315;48.620;9.828;2023-02-19T05:56:20;5.15;;;3.42;;
54408;SDS011;40315;48.620;9.828;2023-02-19T05:58:52;3.88;;;3.22;;
54408;SDS011;40315;48.620;9.828;2023-02-19T06:01:21;3.53;;;3.17;;
54408;SDS011;40315;48.620;9.828;2023-02-19T06:03:50;4.88;;;3.50;;
54408;SDS011;40315;48.620;9.828;2023-02-19T06:06:18;3.90;;;3.38;;
54408;SDS011;40315;48.620;9.828;2023-02-19T06:08:47;4.05;;;3.30;;
54408;SDS011;40315;48.620;9.828;2023-02-19T06:11:15;5.03;;;3.45;;
54408;SDS011;40315;48.620;9.828;2023-02-19T06:13:42;3.22;;;2.92;;
54408;SDS011;40315;48.620;9.828;2023-02-19T06:16:09;4.68;;;3.53;;
54408;SDS011;40315;48.620;9.828;2023-02-19T06:18:37;3.92;;;2.58;;
54408;SDS011;40315;48.620;9.828;2023-02-19T06:21:06;3.40;;;2.80;;
54408;SDS011;40315;48.620;9.828;2023-02-19T06:23:34;3.05;;;2.70;;
54408;SDS011;40315;48.620;9.828;2023-02-19T06:26:06;3.30;;;2.95;;
54408;SDS011;40315;48.620;9.828;2023-02-19T06:28:36;5.30;;;2.90;;
54408;SDS011;40315;48.620;9.828;2023-02-19T06:31:04;3.25;;;2.95;;
54408;SDS011;40315;48.620;9.828;2023-02-19T06:33:34;4.32;;;3.08;;
54408;SDS011;40315;48.620;9.828;2023-02-19T06:36:04;4.57;;;3.58;;
54408;SDS011;40315;48.620;9.828;2023-02-19T06:38:31;3.90;;;3.30;;
54408;SDS011;40315;48.620;9.828;2023-02-19T06:40:59;4.97;;;3.55;;
54408;SDS011;40315;48.620;9.828;2023-02-19T06:43:26;4.40;;;3.88;;
54408;SDS011;40315;48.620;9.828;2023-02-19T06:45:56;4.97;;;3.58;;
54408;SDS011;40315;48.620;9.828;2023-02-19T06:48:24;3.50;;;3.05;;
54408;SDS011;40315;48.620;9.828;2023-02-19T06:50:51;3.42;;;2.80;;
54408;SDS011;40315;48.620;9.828;2023-02-19T06:53:19;3.10;;;2.63;;
54408;SDS011;40315;48.620;9.828;2023-02-19T06:55:53;4.75;;;2.78;;
54408;SDS011;40315;48.620;9.828;2023-02-19T06:58:24;3.10;;;2.10;;
54408;SDS011;40315;48.620;9.828;2023-02-19T07:00:51;2.47;;;2.20;;
54408;SDS011;40315;48.620;9.828;2023-02-19T07:03:18;1.98;;;1.77;;
54408;SDS011;40315;48.620;9.828;2023-02-19T07:05:45;2.00;;;1.80;;
54408;SDS011;40315;48.620;9.828;2023-02-19T07:08:12;1.80;;;1.70;;
54408;SDS011;40315;48.620;9.828;2023-02-19T07:10:42;1.65;;;1.50;;
54408;SDS011;40315;48.620;9.828;2023-02-19T07:13:12;1.58;;;1.40;;
54408;SDS011;40315;48.620;9.828;2023-02-19T07:15:39;1.50;;;1.10;;
54408;SDS011;40315;48.620;9.828;2023-02-19T07:18:07;2.25;;;0.90;;
54408;SDS011;40315;48.620;9.828;2023-02-19T07:20:34;0.70;;;0.70;;
54408;SDS011;40315;48.620;9.828;2023-02-19T07:23:02;0.80;;;0.80;;
54408;SDS011;40315;48.620;9.828;2023-02-19T07:25:29;0.82;;;0.60;;
54408;SDS011;40315;48.620;9.828;2023-02-19T07:27:57;0.77;;;0.70;;
54408;SDS011;40315;48.620;9.828;2023-02-19T07:30:24;1.65;;;0.40;;
54408;SDS011;40315;48.620;9.828;2023-02-19T07:32:51;1.20;;;0.40;;
54408;SDS011;40315;48.620;9.828;2023-02-19T07:35:18;0.50;;;0.50;;
54408;SDS011;40315;48.620;9.828;2023-02-19T07:37:45;0.63;;;0.50;;
54408;SDS011;40315;48.620;9.828;2023-02-19T07:40:12;3.50;;;3.15;;
54408;SDS011;40315;48.620;9.828;2023-02-19T07:42:41;1.30;;;1.20;;
54408;SDS011;40315;48.620;9.828;2023-02-19T07:45:10;1.00;;;0.90;;
54408;SDS011;40315;48.620;9.828;2023-02-19T07:47:37;0.55;;;0.50;;
54408;SDS011;40315;48.620;9.828;2023-02-19T07:50:04;2.17;;;0.52;;
54408;SDS011;40315;48.620;9.828;2023-02-19T07:52:33;1.52;;;0.70;;
54408;SDS011;40315;48.620;9.828;2023-02-19T07:55:00;0.70;;;0.70;;
54408;SDS011;40315;48.620;9.828;2023-02-19T07:57:27;1.40;;;0.60;;
54408;SDS011;40315;48.620;9.828;2023-02-19T07:59:55;0.63;;;0.60;;
54408;SDS011;40315;48.620;9.828;2023-02-19T08:02:24;0.93;;;0.50;;
54408;SDS011;40315;48.620;9.828;2023-02-19T08:05:08;0.40;;;0.40;;
54408;SDS011;40315;48.620;9.828;2023-02-19T08:07:35;1.05;;;0.60;;
54408;SDS011;40315;48.620;9.828;2023-02-19T08:10:05;0.40;;;0.40;;
54408;SDS011;40315;48.620;9.828;2023-02-19T08:12:56;0.30;;;0.30;;
54408;SDS011;40315;48.620;9.828;2023-02-19T08:15:41;0.63;;;0.60;;
54408;SDS011;40315;48.620;9.828;2023-02-19T08:18:10;0.57;;;0.50;;
54408;SDS011;40315;48.620;9.828;2023-02-19T08:20:38;1.00;;;0.50;;
54408;SDS011;40315;48.620;9.828;2023-02-19T08:23:05;0.90;;;0.60;;
54408;SDS011;40315;48.620;9.828;2023-02-19T08:25:35;1.17;;;0.52;;
54408;SDS011;40315;48.620;9.828;2023-02-19T08:28:02;0.98;;;0.68;;
54408;SDS011;40315;48.620;9.828;2023-02-19T08:30:30;1.05;;;0.68;;
54408;SDS011;40315;48.620;9.828;2023-02-19T08:32:58;1.08;;;0.70;;
54408;SDS011;40315;48.620;9.828;2023-02-19T08:35:27;0.60;;;0.60;;
54408;SDS011;40315;48.620;9.828;2023-02-19T08:37:55;0.60;;;0.60;;
54408;SDS011;40315;48.620;9.828;2023-02-19T08:40:24;0.75;;;0.75;;
54408;SDS011;40315;48.620;9.828;2023-02-19T08:42:53;2.33;;;1.30;;
54408;SDS011;40315;48.620;9.828;2023-02-19T08:45:22;0.82;;;0.60;;
54408;SDS011;40315;48.620;9.828;2023-02-19T08:47:51;0.90;;;0.80;;
54408;SDS011;40315;48.620;9.828;2023-02-19T08:50:18;2.67;;;0.68;;
54408;SDS011;40315;48.620;9.828;2023-02-19T08:52:48;1.17;;;1.00;;
54408;SDS011;40315;48.620;9.828;2023-02-19T08:55:17;1.23;;;1.13;;
54408;SDS011;40315;48.620;9.828;2023-02-19T08:57:44;0.80;;;0.80;;
54408;SDS011;40315;48.620;9.828;2023-02-19T09:00:12;0.75;;;0.68;;
54408;SDS011;40315;48.620;9.828;2023-02-19T09:02:42;0.88;;;0.80;;
54408;SDS011;40315;48.620;9.828;2023-02-19T09:05:09;0.90;;;0.70;;
54408;SDS011;40315;48.620;9.828;2023-02-19T09:07:37;0.65;;;0.65;;
54408;SDS011;40315;48.620;9.828;2023-02-19T09:10:09;1.30;;;0.77;;
54408;SDS011;40315;48.620;9.828;2023-02-19T09:12:38;0.90;;;0.68;;
54408;SDS011;40315;48.620;9.828;2023-02-19T09:15:07;0.93;;;0.70;;
54408;SDS011;40315;48.620;9.828;2023-02-19T09:17:34;1.00;;;0.80;;
54408;SDS011;40315;48.620;9.828;2023-02-19T09:20:04;0.80;;;0.75;;
54408;SDS011;40315;48.620;9.828;2023-02-19T09:22:31;1.20;;;0.80;;
54408;SDS011;40315;48.620;9.828;2023-02-19T09:24:59;2.00;;;0.90;;
54408;SDS011;40315;48.620;9.828;2023-02-19T09:27:27;1.27;;;1.05;;
54408;SDS011;40315;48.620;9.828;2023-02-19T09:29:58;1.92;;;1.00;;
54408;SDS011;40315;48.620;9.828;2023-02-19T09:32:29;1.00;;;0.90;;
54408;SDS011;40315;48.620;9.828;2023-02-19T09:34:56;2.95;;;1.27;;
54408;SDS011;40315;48.620;9.828;2023-02-19T09:37:24;1.58;;;1.45;;
54408;SDS011;40315;48.620;9.828;2023-02-19T09:39:52;2.45;;;1.70;;
54408;SDS011;40315;48.620;9.828;2023-02-19T09:42:19;4.57;;;3.00;;
54408;SDS011;40315;48.620;9.828;2023-02-19T09:44:52;3.80;;;2.00;;
54408;SDS011;40315;48.620;9.828;2023-02-19T09:47:20;2.30;;;2.10;;
54408;SDS011;40315;48.620;9.828;2023-02-19T09:49:50;1.60;;;1.00;;
54408;SDS011;40315;48.620;9.828;2023-02-19T09:52:25;1.30;;;0.70;;
54408;SDS011;40315;48.620;9.828;2023-02-19T09:54:58;1.90;;;0.70;;
54408;SDS011;40315;48.620;9.828;2023-02-19T09:57:31;0.60;;;0.60;;
54408;SDS011;40315;48.620;9.828;2023-02-19T10:00:04;0.70;;;0.70;;
54408;SDS011;40315;48.620;9.828;2023-02-19T10:02:39;1.05;;;0.80;;
54408;SDS011;40315;48.620;9.828;2023-02-19T10:05:08;0.80;;;0.60;;
54408;SDS011;40315;48.620;9.828;2023-02-19T10:07:38;1.02;;;0.88;;
54408;SDS011;40315;48.620;9.828;2023-02-19T10:10:27;1.17;;;0.82;;
54408;SDS011;40315;48.620;9.828;2023-02-19T10:13:08;1.25;;;0.82;;
54408;SDS011;40315;48.620;9.828;2023-02-19T10:15:43;0.70;;;0.60;;
54408;SDS011;40315;48.620;9.828;2023-02-19T10:18:14;1.08;;;0.70;;
54408;SDS011;40315;48.620;9.828;2023-02-19T10:20:43;1.02;;;0.80;;
54408;SDS011;40315;48.620;9.828;2023-02-19T10:23:11;0.70;;;0.63;;
54408;SDS011;40315;48.620;9.828;2023-02-19T10:25:42;0.80;;;0.80;;
54408;SDS011;40315;48.620;9.828;2023-02-19T10:28:13;1.80;;;1.00;;
54408;SDS011;40315;48.620;9.828;2023-02-19T10:30:43;2.53;;;1.60;;
54408;SDS011;40315;48.620;9.828;2023-02-19T10:33:16;1.35;;;0.90;;
54408;SDS011;40315;48.620;9.828;2023-02-19T10:35:54;2.20;;;0.70;;
54408;SDS011;40315;48.620;9.828;2023-02-19T10:38:26;1.75;;;1.33;;
54408;SDS011;40315;48.620;9.828;2023-02-19T10:40:57;1.50;;;0.68;;
54408;SDS011;40315;48.620;9.828;2023-02-19T10:43:27;2.28;;;0.80;;
54408;SDS011;40315;48.620;9.828;2023-02-19T10:46:02;1.15;;;0.70;;
54408;SDS011;40315;48.620;9.828;2023-02-19T10:48:31;3.35;;;0.60;;
54408;SDS011;40315;48.620;9.828;2023-02-19T10:51:05;1.05;;;0.65;;
54408;SDS011;40315;48.620;9.828;2023-02-19T10:53:35;1.52;;;0.50;;
54408;SDS011;40315;48.620;9.828;2023-02-19T10:56:06;1.50;;;0.57;;
54408;SDS011;40315;48.620;9.828;2023-02-19T10:58:35;2.08;;;0.80;;
54408;SDS011;40315;48.620;9.828;2023-02-19T11:01:13;2.15;;;1.05;;
54408;SDS011;40315;48.620;9.828;2023-02-19T11:03:47;1.85;;;0.40;;
54408;SDS011;40315;48.620;9.828;2023-02-19T11:06:16;2.35;;;0.75;;
54408;SDS011;40315;48.620;9.828;2023-02-19T11:08:46;2.92;;;0.80;;
54408;SDS011;40315;48.620;9.828;2023-02-19T11:11:23;2.10;;;1.15;;
54408;SDS011;40315;48.620;9.828;2023-02-19T11:13:58;1.02;;;0.75;;
54408;SDS011;40315;48.620;9.828;2023-02-19T11:16:37;1.60;;;0.70;;
54408;SDS011;40315;48.620;9.828;2023-02-19T11:19:21;2.03;;;0.70;;
54408;SDS011;40315;48.620;9.828;2023-02-19T11:21:51;3.30;;;0.70;;
54408;SDS011;40315;48.620;9.828;2023-02-19T11:24:24;1.85;;;0.82;;
54408;SDS011;40315;48.620;9.828;2023-02-19T11:26:58;2.95;;;0.80;;
54408;SDS011;40315;48.620;9.828;2023-02-19T11:29:29;1.55;;;0.60;;
54408;SDS011;40315;48.620;9.828;2023-02-19T11:37:52;1.45;;;0.90;;
54408;SDS011;40315;48.620;9.828;2023-02-19T11:40:21;1.90;;;0.43;;
54408;SDS011;40315;48.620;9.828;2023-02-19T11:42:57;2.30;;;0.85;;
54408;SDS011;40315;48.620;9.828;2023-02-19T11:45:34;0.93;;;0.50;;
54408;SDS011;40315;48.620;9.828;2023-02-19T11:48:16;0.88;;;0.45;;
54408;SDS011;40315;48.620;9.828;2023-02-19T11:51:00;1.20;;;0.60;;
54408;SDS011;40315;48.620;9.828;2023-02-19T11:53:39;1.42;;;0.68;;
54408;SDS011;40315;48.620;9.828;2023-02-19T11:56:14;1.60;;;0.50;;
54408;SDS011;40315;48.620;9.828;2023-02-19T11:58:50;1.00;;;0.60;;
54408;SDS011;40315;48.620;9.828;2023-02-19T12:01:26;1.98;;;1.00;;
54408;SDS011;40315;48.620;9.828;2023-02-19T12:07:10;1.08;;;0.68;;
54408;SDS011;40315;48.620;9.828;2023-02-19T12:09:51;2.33;;;0.52;;
54408;SDS011;40315;48.620;9.828;2023-02-19T12:12:32;1.50;;;0.60;;
54408;SDS011;40315;48.620;9.828;2023-02-19T12:15:23;1.65;;;1.05;;
54408;SDS011;40315;48.620;9.828;2023-02-19T12:18:04;2.40;;;1.00;;
54408;SDS011;40315;48.620;9.828;2023-02-19T12:20:52;2.20;;;0.70;;
54408;SDS011;40315;48.620;9.828;2023-02-19T12:26:33;1.40;;;0.80;;
54408;SDS011;40315;48.620;9.828;2023-02-19T12:29:16;1.23;;;0.50;;
54408;SDS011;40315;48.620;9.828;2023-02-19T12:31:58;2.47;;;0.75;;
54408;SDS011;40315;48.620;9.828;2023-02-19T12:34:47;1.58;;;0.50;;
54408;SDS011;40315;48.620;9.828;2023-02-19T12:37:49;2.15;;;0.60;;
54408;SDS011;40315;48.620;9.828;2023-02-19T12:40:26;2.15;;;0.88;;
54408;SDS011;40315;48.620;9.828;2023-02-19T12:43:09;0.93;;;0.60;;
54408;SDS011;40315;48.620;9.828;2023-02-19T12:45:40;1.70;;;1.00;;
54408;SDS011;40315;48.620;9.828;2023-02-19T12:48:12;1.58;;;0.75;;
54408;SDS011;40315;48.620;9.828;2023-02-19T12:50:44;1.30;;;0.50;;
54408;SDS011;40315;48.620;9.828;2023-02-19T12:53:21;0.88;;;0.70;;
54408;SDS011;40315;48.620;9.828;2023-02-19T12:55:54;2.72;;;0.70;;
54408;SDS011;40315;48.620;9.828;2023-02-19T12:58:26;2.08;;;0.77;;
54408;SDS011;40315;48.620;9.828;2023-02-19T13:00:58;2.42;;;0.68;;
54408;SDS011;40315;48.620;9.828;2023-02-19T13:03:27;0.73;;;0.50;;
54408;SDS011;40315;48.620;9.828;2023-02-19T13:06:03;0.80;;;0.40;;
54408;SDS011;40315;48.620;9.828;2023-02-19T13:08:40;2.40;;;0.68;;
54408;SDS011;40315;48.620;9.828;2023-02-19T13:11:13;1.40;;;0.60;;
54408;SDS011;40315;48.620;9.828;2023-02-19T13:13:44;1.25;;;0.60;;
54408;SDS011;40315;48.620;9.828;2023-02-19T13:16:16;2.45;;;0.60;;
54408;SDS011;40315;48.620;9.828;2023-02-19T13:18:46;1.30;;;0.70;;
54408;SDS011;40315;48.620;9.828;2023-02-19T13:21:16;2.35;;;0.70;;
54408;SDS011;40315;48.620;9.828;2023-02-19T13:24:05;1.35;;;0.52;;
54408;SDS011;40315;48.620;9.828;2023-02-19T13:29:41;1.00;;;0.70;;
54408;SDS011;40315;48.620;9.828;2023-02-19T13:34:58;2.35;;;0.75;;
54408;SDS011;40315;48.620;9.828;2023-02-19T13:37:42;1.17;;;0.68;;
54408;SDS011;40315;48.620;9.828;2023-02-19T13:40:18;1.55;;;0.60;;
54408;SDS011;40315;48.620;9.828;2023-02-19T13:42:52;1.27;;;0.65;;
54408;SDS011;40315;48.620;9.828;2023-02-19T13:45:21;1.83;;;0.73;;
54408;SDS011;40315;48.620;9.828;2023-02-19T13:47:59;1.10;;;0.70;;
54408;SDS011;40315;48.620;9.828;2023-02-19T13:50:40;1.30;;;0.70;;
54408;SDS011;40315;48.620;9.828;2023-02-19T14:02:11;2.65;;;0.90;;
54408;SDS011;40315;48.620;9.828;2023-02-19T14:04:56;0.70;;;0.50;;
54408;SDS011;40315;48.620;9.828;2023-02-19T14:19:44;3.33;;;1.38;;
54408;SDS011;40315;48.620;9.828;2023-02-19T14:25:26;7.50;;;2.50;;
54408;SDS011;40315;48.620;9.828;2023-02-19T14:28:12;3.45;;;1.30;;
54408;SDS011;40315;48.620;9.828;2023-02-19T14:30:59;1.45;;;0.70;;
54408;SDS011;40315;48.620;9.828;2023-02-19T14:33:34;2.83;;;0.70;;
54408;SDS011;40315;48.620;9.828;2023-02-19T14:36:05;2.88;;;0.90;;
54408;SDS011;40315;48.620;9.828;2023-02-19T14:38:43;1.85;;;0.65;;
54408;SDS011;40315;48.620;9.828;2023-02-19T14:41:14;0.93;;;0.73;;
54408;SDS011;40315;48.620;9.828;2023-02-19T14:43:42;2.17;;;0.90;;
54408;SDS011;40315;48.620;9.828;2023-02-19T14:46:15;1.80;;;0.90;;
54408;SDS011;40315;48.620;9.828;2023-02-19T14:48:48;2.00;;;0.73;;
54408;SDS011;40315;48.620;9.828;2023-02-19T14:51:22;3.25;;;1.00;;
54408;SDS011;40315;48.620;9.828;2023-02-19T14:53:55;1.08;;;0.73;;
54408;SDS011;40315;48.620;9.828;2023-02-19T14:56:24;1.55;;;0.70;;
54408;SDS011;40315;48.620;9.828;2023-02-19T15:01:55;1.17;;;0.80;;
54408;SDS011;40315;48.620;9.828;2023-02-19T15:04:24;2.53;;;1.00;;
54408;SDS011;40315;48.620;9.828;2023-02-19T15:06:53;3.28;;;1.90;;
54408;SDS011;40315;48.620;9.828;2023-02-19T15:09:24;2.30;;;1.30;;
54408;SDS011;40315;48.620;9.828;2023-02-19T15:11:59;2.65;;;1.10;;
54408;SDS011;40315;48.620;9.828;2023-02-19T15:14:28;1.13;;;0.80;;
54408;SDS011;40315;48.620;9.828;2023-02-19T15:16:58;2.85;;;1.08;;
54408;SDS011;40315;48.620;9.828;2023-02-19T15:19:28;2.38;;;1.08;;
54408;SDS011;40315;48.620;9.828;2023-02-19T15:22:01;3.50;;;1.38;;
54408;SDS011;40315;48.620;9.828;2023-02-19T15:24:29;2.25;;;1.40;;
54408;SDS011;40315;48.620;9.828;2023-02-19T15:26:56;3.10;;;1.60;;
54408;SDS011;40315;48.620;9.828;2023-02-19T15:29:24;2.70;;;1.60;;
54408;SDS011;40315;48.620;9.828;2023-02-19T15:31:53;1.83;;;1.52;;
54408;SDS011;40315;48.620;9.828;2023-02-19T15:34:23;1.83;;;1.17;;
54408;SDS011;40315;48.620;9.828;2023-02-19T15:36:51;6.40;;;5.53;;
54408;SDS011;40315;48.620;9.828;2023-02-19T15:39:25;5.75;;;4.53;;
54408;SDS011;40315;48.620;9.828;2023-02-19T15:42:00;4.80;;;1.88;;
54408;SDS011;40315;48.620;9.828;2023-02-19T15:44:32;3.28;;;1.90;;
54408;SDS011;40315;48.620;9.828;2023-02-19T15:47:08;2.63;;;1.70;;
54408;SDS011;40315;48.620;9.828;2023-02-19T15:49:45;5.72;;;3.92;;
54408;SDS011;40315;48.620;9.828;2023-02-19T15:52:18;4.45;;;2.53;;
54408;SDS011;40315;48.620;9.828;2023-02-19T15:54:54;2.95;;;1.52;;
54408;SDS011;40315;48.620;9.828;2023-02-19T15:57:26;3.85;;;0.90;;
54408;SDS011;40315;48.620;9.828;2023-02-19T15:59:58;1.50;;;0.90;;
54408;SDS011;40315;48.620;9.828;2023-02-19T16:02:37;1.92;;;1.10;;
54408;SDS011;40315;48.620;9.828;2023-02-19T16:05:11;2.40;;;1.27;;
54408;SDS011;40315;48.620;9.828;2023-02-19T16:07:40;2.72;;;1.30;;
54408;SDS011;40315;48.620;9.828;2023-02-19T16:10:18;2.50;;;1.15;;
54408;SDS011;40315;48.620;9.828;2023-02-19T16:12:55;2.60;;;1.10;;